Weather at Brazil Clay County Airport

Public forecast

Using degrees Fahrenheit for public forecast. Weather courtesy of forecast.io.

Closest aviation weather report (METAR) to Brazil Clay County Airport

Closest report is Terre Haute Regional Airport, Hulman Field, 9.8 nm (18.1 km) W. Retrieved 2020/09/22 02:53 UTC (1 hour ago):

KHUF 220253Z AUTO 00000KT 10SM CLR 12/09 A3028 RMK AO2 SLP251 T01170089 51005

Closest aviation forecast (TAF) to Brazil Clay County Airport

Closest forecast is Terre Haute Regional Airport, Hulman Field, 9.8 nm (18.1 km) W. Retrieved 2020-09-22 00:22 UTC (4 hours ago):

TAF KHUF 212320Z 2200/2224 VRB04KT P6SM FEW150 FM220600 VRB03KT P6SM SCT150 FM221600 VRB03KT P6SM FEW035 SCT230